createdAt,value
2022-08-04T00:02:19.647Z,3.43
2022-08-04T00:04:53.755Z,3.30
2022-08-04T00:07:44.366Z,3.57
2022-08-04T00:10:14.357Z,3.40
2022-08-04T00:12:45.247Z,3.77
2022-08-04T00:15:16.509Z,3.43
2022-08-04T00:17:49.933Z,3.60
2022-08-04T00:20:18.835Z,3.57
2022-08-04T00:22:46.939Z,3.90
2022-08-04T00:25:14.270Z,3.63
2022-08-04T00:27:41.465Z,3.80
2022-08-04T00:30:08.863Z,3.50
2022-08-04T00:32:36.043Z,4.00
2022-08-04T00:35:03.857Z,3.90
2022-08-04T00:37:31.608Z,3.60
2022-08-04T00:39:59.007Z,3.70
2022-08-04T00:42:26.167Z,3.60
2022-08-04T00:45:11.423Z,3.90
2022-08-04T00:47:57.899Z,3.63
2022-08-04T00:50:34.075Z,3.63
2022-08-04T00:53:09.432Z,3.80
2022-08-04T00:55:51.047Z,3.77
2022-08-04T00:58:18.945Z,3.70
2022-08-04T01:00:48.946Z,3.73
2022-08-04T01:03:25.087Z,3.70
2022-08-04T01:06:01.167Z,3.40
2022-08-04T01:08:48.805Z,3.97
2022-08-04T01:11:57.138Z,3.80
2022-08-04T01:14:36.801Z,4.07
2022-08-04T01:17:12.900Z,4.27
2022-08-04T01:19:40.283Z,4.00
2022-08-04T01:22:26.344Z,3.90
2022-08-04T01:25:00.426Z,3.70
2022-08-04T01:27:32.287Z,3.40
2022-08-04T01:30:03.005Z,3.60
2022-08-04T01:32:33.243Z,3.23
2022-08-04T01:35:15.390Z,3.80
2022-08-04T01:38:19.182Z,3.60
2022-08-04T01:40:52.889Z,3.90
2022-08-04T01:43:20.947Z,4.00
2022-08-04T01:45:52.647Z,3.57
2022-08-04T01:48:24.990Z,3.70
2022-08-04T01:50:54.031Z,3.77
2022-08-04T01:53:21.518Z,3.57
2022-08-04T01:55:54.341Z,3.67
2022-08-04T01:58:24.090Z,3.80
2022-08-04T02:00:56.476Z,3.53
2022-08-04T02:03:23.852Z,3.63
2022-08-04T02:06:19.938Z,3.80
2022-08-04T02:08:52.594Z,3.60
2022-08-04T02:11:21.759Z,3.63
2022-08-04T02:13:55.068Z,4.07
2022-08-04T02:16:40.475Z,4.10
2022-08-04T02:19:33.881Z,3.63
2022-08-04T02:22:07.733Z,3.80
2022-08-04T02:24:37.910Z,3.93
2022-08-04T02:27:06.007Z,4.13
2022-08-04T02:29:41.247Z,3.93
2022-08-04T02:32:16.008Z,3.70
2022-08-04T02:34:49.597Z,3.63
2022-08-04T02:37:18.739Z,3.80
2022-08-04T02:39:48.822Z,3.97
2022-08-04T02:42:17.491Z,4.33
2022-08-04T02:44:49.643Z,4.17
2022-08-04T02:47:18.307Z,3.60
2022-08-04T02:49:46.276Z,4.10
2022-08-04T02:52:15.549Z,3.80
2022-08-04T02:54:43.251Z,3.73
2022-08-04T02:57:12.245Z,3.97
2022-08-04T02:59:59.266Z,4.00
2022-08-04T03:02:31.959Z,3.80
2022-08-04T03:05:02.073Z,3.73
2022-08-04T03:07:47.988Z,3.90
2022-08-04T03:10:15.089Z,3.70
2022-08-04T03:12:44.954Z,3.63
2022-08-04T03:15:34.914Z,3.70
2022-08-04T03:18:20.860Z,3.40
2022-08-04T03:20:50.971Z,3.70
2022-08-04T03:23:20.933Z,3.87
2022-08-04T03:25:57.222Z,3.47
2022-08-04T03:28:27.650Z,3.50
2022-08-04T03:30:57.506Z,3.53
2022-08-04T03:33:43.135Z,3.77
2022-08-04T03:36:19.512Z,3.60
2022-08-04T03:39:05.258Z,3.70
2022-08-04T03:41:51.639Z,3.60
2022-08-04T03:44:34.336Z,3.87
2022-08-04T03:47:01.422Z,3.50
2022-08-04T03:49:46.929Z,3.70
2022-08-04T03:52:48.709Z,3.60
2022-08-04T03:55:34.364Z,3.70
2022-08-04T03:58:17.021Z,3.50
2022-08-04T04:01:02.808Z,3.80
2022-08-04T04:03:32.921Z,3.40
2022-08-04T04:06:12.336Z,3.90
2022-08-04T04:08:49.793Z,4.10
2022-08-04T04:11:29.066Z,3.40
2022-08-04T04:13:56.207Z,3.63
2022-08-04T04:16:23.311Z,3.77
2022-08-04T04:19:02.412Z,3.77
2022-08-04T04:21:48.110Z,3.60
2022-08-04T04:24:33.607Z,3.63
2022-08-04T04:27:17.901Z,3.27
2022-08-04T04:29:51.047Z,4.00
2022-08-04T04:32:29.049Z,3.57
2022-08-04T04:35:16.047Z,3.67
2022-08-04T04:37:49.295Z,3.73
2022-08-04T04:40:40.489Z,3.73
2022-08-04T04:43:07.591Z,3.10
2022-08-04T04:45:50.368Z,3.30
2022-08-04T04:48:28.673Z,3.90
2022-08-04T04:50:55.786Z,3.30
2022-08-04T04:53:34.286Z,4.40
2022-08-04T04:56:07.063Z,3.33
2022-08-04T04:58:34.968Z,3.20
2022-08-04T05:01:20.186Z,3.07
2022-08-04T05:04:05.947Z,3.23
2022-08-04T05:06:54.648Z,3.10
2022-08-04T05:09:21.867Z,3.40
2022-08-04T05:12:39.314Z,3.27
2022-08-04T05:14:56.977Z,3.53
2022-08-04T05:17:33.498Z,3.30
2022-08-04T05:20:00.937Z,3.27
2022-08-04T05:22:31.378Z,3.27
2022-08-04T05:25:24.576Z,3.23
2022-08-04T05:27:56.935Z,3.30
2022-08-04T05:30:25.346Z,3.30
2022-08-04T05:33:04.236Z,3.20
2022-08-04T05:36:18.056Z,3.40
2022-08-04T05:38:30.634Z,3.00
2022-08-04T05:40:57.989Z,3.20
2022-08-04T05:43:25.663Z,2.70
2022-08-04T05:45:53.698Z,3.30
2022-08-04T05:48:21.417Z,2.93
2022-08-04T05:50:48.915Z,3.07
2022-08-04T05:53:16.735Z,3.00
2022-08-04T05:55:58.368Z,2.77
2022-08-04T05:58:27.399Z,3.05
2022-08-04T06:00:55.330Z,3.10
2022-08-04T06:03:23.247Z,3.00
2022-08-04T06:05:50.691Z,2.70
2022-08-04T06:08:17.942Z,2.85
2022-08-04T06:10:47.038Z,3.30
2022-08-04T06:13:49.730Z,2.90
2022-08-04T06:16:03.270Z,2.92
2022-08-04T06:18:35.647Z,2.75
2022-08-04T06:21:19.653Z,2.90
2022-08-04T06:23:52.772Z,2.80
2022-08-04T06:26:21.656Z,2.90
2022-08-04T06:28:50.988Z,2.80
2022-08-04T06:32:30.375Z,3.03
2022-08-04T06:34:30.790Z,2.80
2022-08-04T06:36:59.298Z,3.20
2022-08-04T06:39:27.286Z,2.88
2022-08-04T06:42:19.967Z,2.83
2022-08-04T06:44:43.064Z,2.70
2022-08-04T06:47:13.798Z,2.95
2022-08-04T06:51:28.163Z,3.10
2022-08-04T06:52:29.652Z,3.00
2022-08-04T06:54:58.124Z,2.90
2022-08-04T06:57:29.468Z,2.95
2022-08-04T07:00:10.307Z,3.33
2022-08-04T07:02:40.280Z,2.85
2022-08-04T07:05:08.452Z,2.70
2022-08-04T07:07:36.982Z,2.90
2022-08-04T07:10:24.247Z,3.00
2022-08-04T07:12:53.866Z,2.92
2022-08-04T07:15:21.724Z,3.20
2022-08-04T07:17:52.382Z,3.58
2022-08-04T07:20:33.968Z,2.97
2022-08-04T07:23:03.313Z,3.17
2022-08-04T07:25:58.505Z,3.00
2022-08-04T07:28:17.783Z,3.10
2022-08-04T07:30:45.536Z,3.10
2022-08-04T07:33:12.963Z,3.25
2022-08-04T07:36:09.717Z,3.10
2022-08-04T07:38:27.970Z,3.00
2022-08-04T07:40:55.986Z,3.10
2022-08-04T07:43:23.598Z,3.08
2022-08-04T07:45:50.836Z,3.30
2022-08-04T07:48:18.894Z,3.15
2022-08-04T07:50:46.220Z,3.28
2022-08-04T07:53:54.064Z,2.72
2022-08-04T07:56:03.020Z,3.00
2022-08-04T07:58:30.476Z,2.85
2022-08-04T08:00:58.381Z,2.72
2022-08-04T08:03:26.172Z,3.17
2022-08-04T08:05:54.558Z,2.58
2022-08-04T08:08:41.104Z,2.75
2022-08-04T08:11:09.435Z,3.20
2022-08-04T08:13:37.285Z,3.03
2022-08-04T08:16:05.458Z,2.80
2022-08-04T08:18:32.603Z,2.90
2022-08-04T08:20:59.867Z,2.90
2022-08-04T08:23:27.496Z,2.60
2022-08-04T08:25:54.749Z,2.70
2022-08-04T08:28:21.894Z,2.83
2022-08-04T08:30:52.716Z,2.60
2022-08-04T08:33:21.243Z,2.55
2022-08-04T08:35:54.141Z,2.53
2022-08-04T08:38:28.275Z,2.63
2022-08-04T08:40:59.587Z,2.30
2022-08-04T08:44:00.644Z,2.50
2022-08-04T08:46:49.419Z,2.53
2022-08-04T08:50:03.240Z,2.40
2022-08-04T08:52:16.609Z,2.58
2022-08-04T08:55:14.715Z,2.40
2022-08-04T08:57:59.878Z,3.08
2022-08-04T09:00:33.547Z,2.53
2022-08-04T09:03:20.923Z,2.38
2022-08-04T09:06:03.230Z,2.28
2022-08-04T09:08:33.462Z,2.03
2022-08-04T09:11:03.308Z,2.20
2022-08-04T09:13:34.790Z,2.30
2022-08-04T09:16:17.373Z,2.17
2022-08-04T09:19:03.213Z,2.10
2022-08-04T09:21:49.248Z,2.20
2022-08-04T09:24:35.404Z,2.45
2022-08-04T09:27:20.907Z,1.83
2022-08-04T09:30:07.264Z,2.03
2022-08-04T09:32:37.188Z,2.20
2022-08-04T09:35:24.234Z,2.35
2022-08-04T09:37:54.362Z,2.08
2022-08-04T09:40:31.853Z,2.00
2022-08-04T09:43:59.285Z,2.20
2022-08-04T09:46:40.807Z,1.95
2022-08-04T09:49:14.820Z,1.85
2022-08-04T09:51:58.640Z,1.92
2022-08-04T09:54:45.494Z,1.88
2022-08-04T09:57:31.685Z,2.00
2022-08-04T10:00:13.644Z,2.17
2022-08-04T10:02:41.780Z,1.95
2022-08-04T10:05:22.846Z,2.03
2022-08-04T10:08:16.288Z,2.03
2022-08-04T10:10:53.574Z,2.17
2022-08-04T10:13:32.042Z,2.20
2022-08-04T10:16:17.194Z,2.13
2022-08-04T10:18:47.455Z,2.28
2022-08-04T10:21:27.470Z,2.10
2022-08-04T10:24:13.555Z,2.20
2022-08-04T10:26:53.113Z,2.20
2022-08-04T10:29:28.481Z,2.20
2022-08-04T10:32:01.248Z,2.35
2022-08-04T10:34:30.163Z,2.30
2022-08-04T10:37:06.479Z,2.20
2022-08-04T10:39:42.188Z,2.40
2022-08-04T10:42:22.771Z,2.40
2022-08-04T10:44:57.853Z,2.40
2022-08-04T10:47:28.174Z,2.42
2022-08-04T10:49:56.421Z,2.47
2022-08-04T10:52:35.925Z,2.47
2022-08-04T10:55:23.322Z,2.13
2022-08-04T10:58:14.753Z,1.95
2022-08-04T11:00:43.400Z,2.40
2022-08-04T11:03:31.567Z,2.20
2022-08-04T11:05:59.473Z,2.40
2022-08-04T11:08:29.501Z,2.40
2022-08-04T11:10:56.761Z,2.30
2022-08-04T11:13:29.943Z,2.33
2022-08-04T11:15:59.619Z,2.22
2022-08-04T11:18:47.670Z,2.30
2022-08-04T11:21:22.401Z,2.38
2022-08-04T11:23:57.032Z,2.40
2022-08-04T11:26:28.081Z,2.30
2022-08-04T11:29:00.744Z,2.53
2022-08-04T11:31:36.862Z,2.55
2022-08-04T11:34:06.282Z,2.28
2022-08-04T11:36:45.428Z,2.58
2022-08-04T11:39:33.005Z,2.50
2022-08-04T11:42:14.282Z,2.00
2022-08-04T11:44:42.219Z,2.40
2022-08-04T11:47:12.918Z,2.30
2022-08-04T11:49:57.494Z,2.40
2022-08-04T11:52:25.523Z,2.30
2022-08-04T11:54:54.671Z,2.60
2022-08-04T11:57:25.796Z,2.67
2022-08-04T12:00:07.214Z,2.20
2022-08-04T12:02:41.056Z,2.30
2022-08-04T12:05:09.382Z,2.70
2022-08-04T12:07:50.516Z,2.40
2022-08-04T12:10:41.097Z,2.53
2022-08-04T12:13:09.502Z,2.38
2022-08-04T12:15:41.253Z,2.42
2022-08-04T12:18:08.389Z,2.30
2022-08-04T12:20:41.792Z,2.17
2022-08-04T12:23:29.246Z,2.47
2022-08-04T12:25:57.702Z,2.28
2022-08-04T12:28:28.229Z,2.45
2022-08-04T12:31:16.662Z,2.15
2022-08-04T12:34:04.961Z,2.28
2022-08-04T12:36:39.905Z,2.40
2022-08-04T12:39:12.197Z,2.55
2022-08-04T12:42:11.588Z,2.55
2022-08-04T12:44:39.871Z,2.67
2022-08-04T12:47:26.641Z,2.65
2022-08-04T12:50:01.394Z,2.80
2022-08-04T12:55:18.342Z,2.65
2022-08-04T12:57:46.058Z,2.50
2022-08-04T13:00:26.284Z,2.70
2022-08-04T13:02:59.611Z,2.55
2022-08-04T13:05:29.167Z,2.65
2022-08-04T13:07:57.537Z,2.72
2022-08-04T13:10:30.043Z,2.80
2022-08-04T13:12:59.328Z,2.40
2022-08-04T13:15:28.118Z,2.70
2022-08-04T13:17:59.248Z,2.70
2022-08-04T13:20:37.456Z,2.60
2022-08-04T13:23:12.378Z,2.63
2022-08-04T13:26:43.880Z,2.50
2022-08-04T13:28:34.946Z,2.70
2022-08-04T13:31:02.930Z,2.78
2022-08-04T13:33:31.847Z,2.60
2022-08-04T13:35:59.921Z,2.97
2022-08-04T13:38:27.646Z,2.30
2022-08-04T13:40:57.166Z,2.67
2022-08-04T13:44:15.519Z,2.55
2022-08-04T13:46:27.139Z,2.30
2022-08-04T13:49:23.635Z,2.80
2022-08-04T13:51:57.322Z,2.78
2022-08-04T13:54:26.924Z,3.00
2022-08-04T13:57:00.198Z,2.60
2022-08-04T13:59:28.628Z,2.95
2022-08-04T14:02:15.992Z,3.00
2022-08-04T14:04:50.144Z,2.78
2022-08-04T14:07:21.136Z,2.60
2022-08-04T14:10:02.767Z,2.92
2022-08-04T14:12:38.365Z,2.60
2022-08-04T14:16:01.306Z,2.70
2022-08-04T14:18:23.816Z,2.72
2022-08-04T14:21:10.670Z,2.90
2022-08-04T14:23:47.063Z,2.97
2022-08-04T14:26:17.909Z,2.83
2022-08-04T14:29:25.882Z,2.80
2022-08-04T14:31:32.547Z,2.90
2022-08-04T14:34:03.797Z,2.80
2022-08-04T14:37:04.604Z,2.90
2022-08-04T14:39:39.084Z,3.15
2022-08-04T14:42:06.877Z,2.97
2022-08-04T14:44:52.913Z,2.75
2022-08-04T14:47:20.180Z,3.10
2022-08-04T14:49:55.064Z,2.90
2022-08-04T14:52:25.634Z,2.85
2022-08-04T14:54:53.255Z,3.00
2022-08-04T14:57:20.416Z,3.15
2022-08-04T15:00:00.817Z,3.08
2022-08-04T15:02:30.402Z,2.92
2022-08-04T15:04:58.247Z,2.80
2022-08-04T15:07:25.643Z,3.20
2022-08-04T15:09:53.020Z,2.90
2022-08-04T15:12:21.038Z,3.10
2022-08-04T15:14:48.580Z,2.90
2022-08-04T15:17:29.353Z,3.00
2022-08-04T15:19:57.994Z,3.05
2022-08-04T15:22:25.383Z,3.10
2022-08-04T15:24:55.006Z,3.30
2022-08-04T15:27:24.984Z,3.17
2022-08-04T15:29:52.378Z,2.63
2022-08-04T15:32:31.094Z,3.10
2022-08-04T15:35:02.517Z,3.30
2022-08-04T15:37:31.992Z,2.75
2022-08-04T15:40:09.766Z,3.08
2022-08-04T15:42:39.638Z,3.10
2022-08-04T15:45:12.940Z,2.92
2022-08-04T15:47:40.812Z,2.92
2022-08-04T15:50:09.381Z,2.88
2022-08-04T15:53:00.930Z,2.90
2022-08-04T15:55:44.746Z,3.40
2022-08-04T15:58:16.590Z,3.00
2022-08-04T16:00:49.973Z,2.80
2022-08-04T16:03:58.338Z,2.70
2022-08-04T16:06:28.791Z,3.00
2022-08-04T16:09:01.251Z,2.90
2022-08-04T16:11:36.806Z,2.72
2022-08-04T16:14:04.046Z,2.72
2022-08-04T16:16:31.587Z,2.63
2022-08-04T16:19:06.193Z,2.67
2022-08-04T16:21:34.168Z,2.80
2022-08-04T16:24:09.967Z,2.78
2022-08-04T16:26:45.453Z,2.55
2022-08-04T16:29:31.952Z,2.80
2022-08-04T16:32:05.512Z,2.75
2022-08-04T16:34:49.409Z,2.58
2022-08-04T16:37:18.964Z,2.75
2022-08-04T16:39:50.189Z,2.83
2022-08-04T16:42:30.945Z,2.58
2022-08-04T16:45:13.031Z,2.72
2022-08-04T16:47:49.234Z,2.70
2022-08-04T16:50:17.052Z,2.83
2022-08-04T16:52:47.906Z,2.60
2022-08-04T16:55:21.553Z,2.70
2022-08-04T16:57:52.772Z,2.88
2022-08-04T17:00:29.022Z,2.80
2022-08-04T17:02:57.555Z,2.90
2022-08-04T17:05:39.322Z,2.65
2022-08-04T17:08:29.087Z,3.10
2022-08-04T17:10:54.827Z,2.80
2022-08-04T17:14:02.967Z,2.95
2022-08-04T17:16:18.937Z,2.75
2022-08-04T17:18:48.157Z,2.50
2022-08-04T17:21:19.422Z,2.80
2022-08-04T17:24:12.557Z,2.50
2022-08-04T17:26:39.847Z,2.60
2022-08-04T17:29:08.650Z,2.85
2022-08-04T17:31:38.279Z,2.72
2022-08-04T17:34:15.633Z,2.92
2022-08-04T17:36:44.110Z,2.80
2022-08-04T17:39:16.725Z,2.67
2022-08-04T17:41:48.919Z,2.80
2022-08-04T17:44:16.786Z,2.83
2022-08-04T17:46:45.641Z,2.60
2022-08-04T17:49:19.019Z,2.80
2022-08-04T17:52:04.670Z,2.70
2022-08-04T17:54:38.627Z,2.90
2022-08-04T17:57:19.499Z,3.00
2022-08-04T17:59:57.229Z,2.72
2022-08-04T18:02:33.192Z,2.60
2022-08-04T18:05:07.661Z,2.53
2022-08-04T18:08:35.179Z,2.67
2022-08-04T18:10:51.853Z,2.50
2022-08-04T18:13:24.617Z,2.50
2022-08-04T18:16:00.745Z,2.67
2022-08-04T18:18:30.026Z,2.40
2022-08-04T18:20:59.649Z,2.60
2022-08-04T18:23:31.352Z,2.53
2022-08-04T18:25:58.733Z,2.58
2022-08-04T18:28:27.046Z,2.55
2022-08-04T18:30:56.379Z,2.53
2022-08-04T18:33:41.360Z,2.50
2022-08-04T18:36:33.963Z,2.40
2022-08-04T18:38:58.471Z,2.50
2022-08-04T18:41:26.561Z,2.67
2022-08-04T18:43:55.515Z,2.60
2022-08-04T18:46:23.673Z,2.65
2022-08-04T18:48:54.283Z,2.60
2022-08-04T18:51:24.901Z,2.70
2022-08-04T18:53:59.226Z,2.70
2022-08-04T18:59:18.189Z,2.65
2022-08-04T19:02:17.204Z,2.30
2022-08-04T19:04:36.745Z,2.88
2022-08-04T19:07:29.531Z,2.60
2022-08-04T19:09:58.091Z,2.72
2022-08-04T19:12:28.283Z,2.60
2022-08-04T19:17:53.905Z,2.58
2022-08-04T19:20:26.338Z,2.80
2022-08-04T19:24:11.623Z,2.53
2022-08-04T19:26:02.549Z,2.70
2022-08-04T19:28:31.692Z,2.50
2022-08-04T19:31:01.608Z,2.63
2022-08-04T19:33:58.246Z,2.30
2022-08-04T19:36:17.278Z,2.55
2022-08-04T19:38:44.916Z,2.38
2022-08-04T19:41:14.369Z,2.70
2022-08-04T19:43:43.673Z,2.95
2022-08-04T19:46:12.050Z,2.75
2022-08-04T19:48:39.517Z,2.30
2022-08-04T19:51:07.844Z,2.65
2022-08-04T19:53:37.678Z,2.65
2022-08-04T19:56:10.189Z,2.83
2022-08-04T19:58:38.599Z,2.70
2022-08-04T20:01:22.785Z,2.72
2022-08-04T20:04:10.040Z,2.50
2022-08-04T20:06:38.413Z,2.70
2022-08-04T20:09:26.106Z,2.70
2022-08-04T20:11:53.014Z,2.60
2022-08-04T20:14:31.111Z,2.60
2022-08-04T20:17:00.178Z,2.50
2022-08-04T20:19:27.281Z,2.40
2022-08-04T20:21:56.595Z,2.45
2022-08-04T20:24:41.516Z,2.50
2022-08-04T20:27:15.312Z,2.42
2022-08-04T20:29:49.116Z,2.90
2022-08-04T20:32:19.421Z,2.47
2022-08-04T20:34:47.104Z,2.40
2022-08-04T20:37:15.432Z,2.50
2022-08-04T20:39:42.921Z,2.65
2022-08-04T20:42:11.339Z,2.50
2022-08-04T20:44:42.139Z,2.70
2022-08-04T20:47:14.003Z,2.60
2022-08-04T20:49:41.382Z,2.65
2022-08-04T20:52:16.445Z,2.47
2022-08-04T20:54:48.482Z,2.40
2022-08-04T20:57:37.727Z,2.75
2022-08-04T21:00:17.605Z,2.55
2022-08-04T21:02:53.807Z,2.60
2022-08-04T21:05:20.992Z,2.53
2022-08-04T21:07:48.845Z,2.80
2022-08-04T21:10:16.968Z,2.90
2022-08-04T21:12:44.252Z,2.55
2022-08-04T21:18:06.009Z,2.60
2022-08-04T21:20:34.528Z,2.67
2022-08-04T21:23:04.912Z,2.38
2022-08-04T21:25:42.514Z,2.90
2022-08-04T21:28:10.247Z,2.42
2022-08-04T21:30:54.149Z,2.50
2022-08-04T21:33:23.827Z,2.85
2022-08-04T21:35:54.700Z,2.60
2022-08-04T21:38:27.933Z,2.38
2022-08-04T21:40:56.329Z,2.83
2022-08-04T21:43:27.453Z,2.90
2022-08-04T21:45:56.032Z,2.88
2022-08-04T21:48:23.885Z,2.97
2022-08-04T21:50:54.878Z,2.83
2022-08-04T21:53:22.483Z,2.65
2022-08-04T21:56:05.169Z,2.90
2022-08-04T21:58:34.456Z,2.97
2022-08-04T22:01:05.912Z,2.90
2022-08-04T22:03:53.480Z,2.97
2022-08-04T22:09:14.723Z,3.23
2022-08-04T22:11:48.779Z,4.40
2022-08-04T22:14:16.961Z,3.20
2022-08-04T22:16:45.302Z,3.50
2022-08-04T22:19:13.667Z,3.10
2022-08-04T22:21:45.376Z,2.80
2022-08-04T22:24:14.541Z,2.97
2022-08-04T22:26:42.334Z,2.83
2022-08-04T22:29:14.693Z,2.90
2022-08-04T22:31:56.175Z,2.93
2022-08-04T22:34:24.934Z,2.80
2022-08-04T22:36:53.344Z,2.63
2022-08-04T22:39:23.453Z,3.30
2022-08-04T22:42:04.225Z,2.90
2022-08-04T22:44:32.406Z,3.00
2022-08-04T22:47:00.821Z,2.70
2022-08-04T22:49:31.439Z,2.63
2022-08-04T22:51:59.296Z,2.90
2022-08-04T22:54:29.751Z,3.10
2022-08-04T22:56:58.941Z,2.93
2022-08-04T22:59:27.865Z,3.20
2022-08-04T23:02:00.172Z,2.90
2022-08-04T23:04:29.324Z,3.05
2022-08-04T23:06:56.515Z,2.90
2022-08-04T23:09:48.756Z,2.97
2022-08-04T23:12:27.673Z,3.03
2022-08-04T23:14:58.449Z,3.10
2022-08-04T23:17:27.808Z,3.47
2022-08-04T23:19:57.624Z,3.00
2022-08-04T23:22:37.092Z,3.07
2022-08-04T23:25:15.957Z,3.20
2022-08-04T23:27:48.221Z,2.83
2022-08-04T23:30:19.911Z,2.93
2022-08-04T23:32:49.255Z,3.23
2022-08-04T23:35:18.479Z,2.93
2022-08-04T23:37:57.861Z,2.97
2022-08-04T23:40:35.336Z,2.83
2022-08-04T23:43:18.265Z,3.00
2022-08-04T23:46:06.428Z,3.10
2022-08-04T23:48:35.839Z,3.40
2022-08-04T23:51:15.075Z,3.13
2022-08-04T23:54:03.440Z,2.93
2022-08-04T23:56:30.801Z,3.20
2022-08-04T23:59:00.298Z,3.07
